Latest Weather Observations for Roxby Downs

IDS60801

Issued at 10:01 pm CST Friday 28 August 2015 (issued every 30 minutes, with the page automatically refreshed every 10 minutes)

About weather observations | Map of weather stations | Latest weather observations for SA | Other Formats
Station Details ID: 016096 Name: OLYMPIC DAM AERODROME Lat: -30.48 Lon: 136.88 Height: 98.5 m
Data from the previous 72 hours. | See also: Recent months at Roxby Downs
Date/Time
CST
Temp
°C
App
Temp
°C
Dew
Point
Rel
Hum
%
Delta-T
°C
Wind Press
QNH
hPa
Press
MSL
hPa
Rain
since 9 am
mm
Dir
 
Spd
km/h
Gust
km/h
Spd
kts
Gust
kts
28/10:00pm 8.1 5.8 5.0 81 1.4 S 6 7 3 4 1026.5 1026.5 0.0
28/09:30pm 8.7 6.3 5.4 80 1.5 SSE 7 9 4 5 1026.5 1026.5 0.0
28/09:00pm 9.2 8.0 4.8 74 2.0 CALM 0 0 0 0 1026.6 1026.6 0.0
28/08:30pm 10.7 9.5 4.6 66 2.7 CALM 0 0 0 0 1026.1 1026.2 0.0
28/08:00pm 12.7 10.0 3.6 54 4.1 ESE 7 9 4 5 1025.6 1025.7 0.0
28/07:30pm 13.9 10.7 2.8 47 4.9 ESE 9 11 5 6 1025.5 1025.6 0.0
28/07:00pm 14.6 11.4 2.8 45 5.3 ESE 9 11 5 6 1025.1 1025.2 0.0
28/06:30pm 15.3 10.9 2.8 43 5.6 ESE 15 19 8 10 1024.9 1025.0 0.0
28/06:00pm 15.0 12.2 3.2 45 5.3 ESE 7 9 4 5 1024.5 1024.6 0.0
28/05:30pm 15.4 11.4 2.6 42 5.7 ESE 13 17 7 9 1024.1 1024.2 0.0
28/05:00pm 16.3 11.5 2.7 40 6.2 SE 17 24 9 13 1024.1 1024.2 0.0
28/04:30pm 17.0 12.9 2.2 37 6.7 SE 13 19 7 10 1024.1 1024.2 0.0
28/04:00pm 16.9 12.8 2.1 37 6.7 SE 13 19 7 10 1024.1 1024.2 0.0
28/03:30pm 17.0 12.4 1.8 36 6.8 SE 15 26 8 14 1024.3 1024.4 0.0
28/03:00pm 17.0 13.2 1.8 36 6.8 ESE 11 17 6 9 1024.5 1024.6 0.0
28/02:30pm 16.2 12.7 1.1 36 6.6 ESE 9 17 5 9 1024.7 1024.8 0.0
28/02:00pm 16.6 12.8 1.5 36 6.7 SE 11 20 6 11 1025.0 1025.1 0.0
28/01:30pm 16.1 12.2 1.0 36 6.6 SE 11 17 6 9 1025.4 1025.5 0.0
28/01:00pm 17.0 13.5 1.4 35 6.9 SE 9 24 5 13 1026.0 1026.1 0.0
28/12:30pm 16.7 13.9 3.0 40 6.2 NNE 7 13 4 7 1026.6 1026.6 0.0
28/12:00pm 15.8 11.9 3.3 43 5.7 ENE 13 20 7 11 1027.2 1027.2 0.0
28/11:30am 15.9 12.2 4.6 47 5.3 E 13 20 7 11 1027.8 1027.8 0.0
28/11:00am 14.9 11.3 5.1 52 4.6 E 13 22 7 12 1028.2 1028.2 0.0
28/10:30am 14.4 10.1 5.2 54 4.3 ESE 17 28 9 15 1028.3 1028.3 0.0
28/10:00am 13.6 9.3 5.3 57 3.9 ESE 17 24 9 13 1028.5 1028.5 0.0
28/09:30am 12.6 8.8 6.0 64 3.1 ESE 15 22 8 12 1028.6 1028.6 0.0
28/09:00am 11.5 7.8 6.4 71 2.4 SE 15 20 8 11 1028.6 1028.6 0.0
28/08:30am 10.1 6.1 6.6 79 1.6 SE 17 20 9 11 1028.4 1028.4 0.0
28/08:00am 8.4 4.7 6.5 88 0.9 SE 15 20 8 11 1028.2 1028.2 0.0
28/07:30am 7.3 4.4 6.4 94 0.4 SSE 11 13 6 7 1028.0 1028.0 0.0
28/07:00am 6.5 3.1 5.9 96 0.3 SSE 13 15 7 8 1027.7 1027.7 0.0
28/06:30am 6.7 3.3 6.1 96 0.3 SSE 13 15 7 8 1027.5 1027.5 0.0
28/06:00am 6.3 3.6 5.6 95 0.3 SSE 9 11 5 6 1027.4 1027.4 0.0
28/05:30am 6.5 3.8 5.8 95 0.3 SSE 9 11 5 6 1027.2 1027.2 0.0
28/05:00am 6.3 3.2 5.4 94 0.4 SSE 11 11 6 6 1027.0 1027.0 0.0
28/04:30am 6.3 3.1 5.1 92 0.5 S 11 13 6 7 1026.9 1026.9 0.0
28/04:00am 6.2 3.3 4.5 89 0.7 S 9 11 5 6 1026.8 1026.8 0.0
28/03:30am 6.4 3.1 4.4 87 0.9 S 11 13 6 7 1026.8 1026.8 0.0
28/03:00am 6.6 3.6 4.3 85 1.0 S 9 9 5 5 1027.0 1027.0 0.0
28/02:30am 7.1 3.8 4.4 83 1.2 S 11 13 6 7 1027.1 1027.1 0.0
28/02:00am 7.0 4.4 4.1 82 1.3 SSE 7 9 4 5 1027.1 1027.1 0.0
28/01:30am 7.9 4.6 4.7 80 1.4 SSE 11 13 6 7 1027.1 1027.1 0.0
28/01:00am 7.8 4.9 4.4 79 1.5 SSE 9 11 5 6 1027.2 1027.2 0.0
28/12:30am 8.5 5.2 4.3 75 1.8 SSE 11 13 6 7 1027.1 1027.1 0.0
28/12:00am 8.7 5.7 4.3 74 1.9 SSE 9 13 5 7 1027.2 1027.2 0.0
 
Date/Time
CST
Temp
°C
App
Temp
°C
Dew
Point
Rel
Hum
%
Delta-T
°C
Wind Press
QNH
hPa
Press
MSL
hPa
Rain
since 9 am
mm
Dir
 
Spd
km/h
Gust
km/h
Spd
kts
Gust
kts
27/11:30pm 8.8 5.1 4.4 74 1.9 SSE 13 15 7 8 1027.1 1027.1 0.0
27/11:00pm 8.1 5.6 4.5 78 1.6 SSE 7 9 4 5 1027.3 1027.3 0.0
27/10:30pm 8.5 5.5 4.3 75 1.8 SSE 9 11 5 6 1027.3 1027.3 0.0
27/10:00pm 7.7 5.2 5.0 83 1.2 SSE 7 9 4 5 1027.5 1027.5 0.0
27/09:30pm 7.9 5.6 5.0 82 1.3 SSW 6 7 3 4 1027.4 1027.4 0.0
27/09:00pm 8.5 6.3 5.1 79 1.5 SSW 6 7 3 4 1027.2 1027.2 0.0
27/08:30pm 9.8 7.3 3.5 65 2.7 S 6 7 3 4 1026.9 1026.9 0.0
27/08:00pm 10.6 7.9 3.9 63 3.0 S 7 11 4 6 1026.7 1026.7 0.0
27/07:30pm 11.4 8.8 3.2 57 3.6 SSW 6 9 3 5 1026.6 1026.6 0.0
27/07:00pm 12.7 9.7 2.3 49 4.5 S 7 9 4 5 1026.2 1026.3 0.0
27/06:30pm 14.1 9.6 2.0 44 5.3 S 15 19 8 10 1025.9 1026.0 0.0
27/06:00pm 14.9 9.9 1.1 39 6.0 S 17 26 9 14 1025.6 1025.7 0.0
27/05:30pm 15.6 10.5 1.0 37 6.3 S 17 20 9 11 1025.3 1025.4 0.0
27/05:00pm 16.2 11.2 1.1 36 6.6 SSE 17 24 9 13 1025.1 1025.2 0.0
27/04:30pm 16.3 10.8 1.6 37 6.5 S 20 32 11 17 1024.9 1025.0 0.0
27/04:00pm 16.4 10.1 1.7 37 6.6 S 24 33 13 18 1025.0 1025.1 0.0
27/03:30pm 16.6 11.0 1.5 36 6.7 S 20 30 11 16 1025.0 1025.1 0.0
27/03:00pm 16.6 11.0 1.5 36 6.7 SSE 20 28 11 15 1025.0 1025.1 0.0
27/02:30pm 16.5 11.1 2.2 38 6.4 S 20 30 11 16 1025.1 1025.2 0.0
27/02:00pm 16.2 11.7 2.2 39 6.3 S 15 24 8 13 1025.3 1025.4 0.0
27/01:30pm 15.8 10.4 2.2 40 6.1 S 20 30 11 16 1025.6 1025.7 0.0
27/01:00pm 15.8 10.6 2.6 41 6.0 S 19 32 10 17 1026.0 1026.1 0.0
27/12:30pm 15.2 9.7 2.1 41 5.8 S 20 28 11 15 1026.7 1026.7 0.0
27/12:00pm 14.6 9.7 2.2 43 5.5 SSE 17 26 9 14 1027.0 1027.0 0.0
27/11:30am 14.3 9.1 2.5 45 5.2 SSE 19 30 10 16 1027.2 1027.2 0.0
27/11:00am 14.3 9.3 3.5 48 4.9 S 19 24 10 13 1027.4 1027.4 0.0
27/10:30am 13.4 8.2 3.8 52 4.3 S 20 26 11 14 1027.6 1027.6 0.0
27/10:00am 12.5 7.3 3.5 54 4.0 SSE 20 28 11 15 1027.8 1027.8 0.0
27/09:30am 11.8 6.6 3.6 57 3.6 S 20 26 11 14 1027.8 1027.8 0.0
27/09:00am 10.9 6.5 4.6 65 2.8 S 17 24 9 13 1027.5 1027.5 0.0
27/08:30am 9.0 5.3 4.6 74 1.9 S 13 17 7 9 1027.1 1027.1 0.0
27/08:00am 7.2 3.5 4.2 81 1.3 S 13 17 7 9 1027.0 1027.0 0.0
27/07:30am 5.6 2.5 3.6 87 0.8 SSW 9 11 5 6 1026.6 1026.6 0.0
27/07:00am 4.1 0.9 2.9 92 0.5 SSW 9 11 5 6 1026.1 1026.2 0.0
27/06:30am 4.0 1.1 2.7 91 0.5 S 7 9 4 5 1025.7 1025.8 0.0
27/06:00am 4.0 1.1 2.5 90 0.6 SSW 7 9 4 5 1025.4 1025.5 0.0
27/05:30am 4.3 1.4 2.5 88 0.7 SSW 7 9 4 5 1025.0 1025.1 0.0
27/05:00am 4.8 1.5 2.7 86 0.9 SSW 9 11 5 6 1024.6 1024.7 0.0
27/04:30am 5.2 1.9 2.6 83 1.1 SSW 9 11 5 6 1024.6 1024.7 0.0
27/04:00am 5.6 2.7 2.8 82 1.2 S 7 9 4 5 1024.5 1024.6 0.0
27/03:30am 6.4 2.8 2.9 78 1.5 SSW 11 15 6 8 1024.5 1024.6 0.0
27/03:00am 6.0 2.8 3.0 81 1.2 SW 9 13 5 7 1024.6 1024.7 0.0
27/02:30am 5.2 2.6 3.2 87 0.8 SSW 6 9 3 5 1024.6 1024.7 0.0
27/02:00am 5.4 2.8 3.4 87 0.8 SW 6 7 3 4 1024.8 1024.9 0.0
27/01:30am 5.2 2.5 3.7 90 0.6 SW 7 9 4 5 1024.8 1024.9 0.0
27/01:00am 5.5 4.1 3.5 87 0.8 CALM 0 0 0 0 1024.9 1025.0 0.0
27/12:30am 6.6 5.2 3.8 82 1.2 CALM 0 6 0 3 1025.0 1025.1 0.0
27/12:00am 7.0 4.3 3.6 79 1.4 WSW 7 7 4 4 1024.9 1025.0 0.0
 
Date/Time
CST
Temp
°C
App
Temp
°C
Dew
Point
Rel
Hum
%
Delta-T
°C
Wind Press
QNH
hPa
Press
MSL
hPa
Rain
since 9 am
mm
Dir
 
Spd
km/h
Gust
km/h
Spd
kts
Gust
kts
26/11:30pm 8.3 4.9 3.8 73 1.9 SW 11 13 6 7 1025.0 1025.1 0.0
26/11:00pm 8.6 5.9 3.6 71 2.2 S 7 9 4 5 1025.0 1025.1 0.0
26/10:30pm 9.4 6.0 3.8 68 2.4 SW 11 13 6 7 1025.1 1025.2 0.0
26/10:00pm 9.6 6.2 3.8 67 2.5 SW 11 13 6 7 1025.2 1025.3 0.0
26/09:30pm 10.2 6.8 3.9 65 2.8 SW 11 13 6 7 1025.0 1025.1 0.0
26/09:00pm 10.7 7.3 4.2 64 2.9 SW 11 15 6 8 1024.9 1025.0 0.0
26/08:30pm 11.2 7.4 4.0 61 3.2 SW 13 17 7 9 1024.8 1024.9 0.0
26/08:00pm 11.4 7.7 4.2 61 3.2 SW 13 15 7 8 1024.4 1024.5 0.0
26/07:30pm 11.9 8.5 4.2 59 3.5 SW 11 13 6 7 1023.9 1024.0 0.0
26/07:00pm 12.8 9.0 4.0 55 4.0 SW 13 17 7 9 1023.7 1023.7 0.0
26/06:30pm 13.5 9.3 3.6 51 4.5 SW 15 20 8 11 1023.3 1023.3 0.0
26/06:00pm 14.2 9.4 2.8 46 5.1 SSW 17 22 9 12 1023.0 1023.0 0.0
26/05:30pm 15.1 11.0 2.3 42 5.7 WSW 13 20 7 11 1022.7 1022.7 0.0
26/05:00pm 15.6 11.5 2.1 40 6.0 WSW 13 20 7 11 1022.4 1022.4 0.0
26/04:30pm 15.7 11.6 2.2 40 6.0 SW 13 20 7 11 1022.3 1022.3 0.0
26/04:00pm 15.6 11.2 0.6 36 6.5 SW 13 20 7 11 1022.2 1022.2 0.0
26/03:30pm 15.5 11.8 0.1 35 6.6 SW 9 17 5 9 1022.3 1022.3 0.0
26/03:00pm 15.6 10.9 1.0 37 6.3 SW 15 22 8 12 1022.3 1022.3 0.0
26/02:30pm 15.6 12.4 0.6 36 6.5 SSW 7 17 4 9 1022.6 1022.6 0.0
26/02:00pm 15.4 11.9 1.5 39 6.1 WSW 9 20 5 11 1022.8 1022.8 0.0
26/01:30pm 14.8 10.7 2.0 42 5.6 WNW 13 20 7 11 1023.1 1023.1 0.0
26/01:00pm 15.1 11.6 3.3 45 5.4 WNW 11 19 6 10 1023.7 1023.7 0.0
26/12:30pm 14.5 10.6 3.3 47 5.1 W 13 20 7 11 1024.2 1024.3 0.0
26/12:00pm 13.9 10.4 3.7 50 4.6 WNW 11 24 6 13 1024.5 1024.6 0.0
26/11:30am 13.3 10.8 5.0 57 3.8 NW 7 15 4 8 1024.8 1024.9 0.0
26/11:00am 12.8 10.0 5.0 59 3.6 NW 9 15 5 8 1025.1 1025.2 0.0
26/10:30am 12.5 10.1 5.4 62 3.3 NNE 7 11 4 6 1025.1 1025.2 0.0
26/10:00am 11.4 8.6 5.1 65 2.9 NNE 9 11 5 6 1025.4 1025.5 0.0
26/09:30am 10.4 8.5 4.8 68 2.5 SE 4 11 2 6 1025.3 1025.4 0.0
26/09:00am 9.2 7.0 5.2 76 1.8 SE 6 9 3 5 1025.3 1025.4 0.0
26/08:30am 7.8 5.4 5.1 83 1.2 SSW 7 11 4 6 1025.3 1025.4 0.0
26/08:00am 6.5 4.2 5.0 90 0.7 SW 6 9 3 5 1025.1 1025.2 0.0
26/07:30am 5.1 2.5 4.4 95 0.3 WSW 7 9 4 5 1024.5 1024.6 0.0
26/07:00am 3.3 0.4 2.6 95 0.3 WSW 7 9 4 5 1024.1 1024.2 0.0
26/06:30am 3.5 0.8 2.6 94 0.4 SSW 6 7 3 4 1023.9 1024.0 0.0
26/06:00am 4.2 1.5 3.5 95 0.3 S 7 9 4 5 1023.8 1023.8 0.0
26/05:30am 4.4 1.3 3.5 94 0.4 S 9 11 5 6 1023.4 1023.4 0.0
26/05:00am 4.6 1.9 3.6 93 0.4 S 7 11 4 6 1023.3 1023.3 0.0
26/04:30am 5.0 1.9 3.8 92 0.5 SSW 9 9 5 5 1023.5 1023.5 0.0
26/04:00am 5.2 2.2 3.9 91 0.5 SSW 9 9 5 5 1023.4 1023.4 0.0
26/03:30am 5.3 2.8 3.5 88 0.7 SSW 6 7 3 4 1023.5 1023.5 0.0
26/03:00am 5.9 3.2 3.9 87 0.8 SSW 7 9 4 5 1024.0 1024.1 0.0
26/02:30am 6.4 3.4 4.1 85 1.0 SW 9 11 5 6 1024.1 1024.2 0.0
26/02:00am 6.9 3.5 4.2 83 1.2 SSW 11 11 6 6 1024.3 1024.4 0.0
26/01:30am 6.9 3.9 4.0 82 1.2 SSW 9 9 5 5 1024.7 1024.8 0.0
26/01:00am 7.3 4.3 4.1 80 1.4 SSW 9 11 5 6 1025.0 1025.1 0.0
26/12:30am 8.2 4.9 4.4 77 1.7 SSE 11 15 6 8 1025.0 1025.1 0.0
26/12:00am 7.9 4.5 4.1 77 1.6 S 11 13 6 7 1025.1 1025.2 0.0
 
Date/Time
CST
Temp
°C
App
Temp
°C
Dew
Point
Rel
Hum
%
Delta-T
°C
Wind Press
QNH
hPa
Press
MSL
hPa
Rain
since 9 am
mm
Dir
 
Spd
km/h
Gust
km/h
Spd
kts
Gust
kts
25/11:30pm 7.5 4.5 4.1 79 1.5 S 9 11 5 6 1025.2 1025.3 0.0
25/11:00pm 7.5 4.6 4.5 81 1.3 S 9 11 5 6 1025.3 1025.4 0.0
25/10:30pm 7.2 4.7 4.7 84 1.1 S 7 9 4 5 1025.6 1025.7 0.0

Other Formats:

Comma delimited format used in spreadsheet applications
http://www.bom.gov.au/fwo/IDS60801/IDS60801.95658.axf

JavaScript Object Notation format (JSON) in row-major order
http://www.bom.gov.au/fwo/IDS60801/IDS60801.95658.json